createdAt,value
2018-11-21T08:55:51.931Z,14.73
2018-11-21T08:58:20.402Z,14.80
2018-11-21T09:00:51.643Z,12.40
2018-11-21T09:03:23.060Z,13.63
2018-11-21T09:05:58.123Z,15.20
2018-11-21T09:08:26.672Z,14.50
2018-11-21T09:10:55.108Z,13.83
2018-11-21T09:13:27.942Z,14.97
2018-11-21T09:15:57.499Z,14.60
2018-11-21T09:18:28.464Z,14.37
2018-11-21T09:20:56.890Z,15.30
2018-11-21T09:23:25.442Z,15.83
2018-11-21T09:25:53.870Z,14.80
2018-11-21T09:28:22.329Z,14.50
2018-11-21T09:30:50.716Z,14.93
2018-11-21T09:33:20.185Z,15.30
2018-11-21T09:35:49.463Z,13.43
2018-11-21T09:38:17.998Z,16.27
2018-11-21T09:40:52.209Z,16.87
2018-11-21T09:43:24.120Z,15.83
2018-11-21T09:45:57.620Z,15.33
2018-11-21T09:48:26.471Z,15.87
2018-11-21T09:50:56.992Z,18.37
2018-11-21T09:53:29.726Z,15.50
2018-11-21T09:56:00.919Z,15.13
2018-11-21T09:58:29.339Z,15.57
2018-11-21T10:01:35.198Z,17.90
2018-11-21T10:04:03.296Z,16.30
2018-11-21T10:06:36.840Z,17.10
2018-11-21T10:09:19.240Z,15.53
2018-11-21T10:11:47.715Z,15.40
2018-11-21T10:14:22.357Z,17.80
2018-11-21T10:16:49.571Z,15.90
2018-11-21T10:19:18.464Z,16.53
2018-11-21T10:21:49.503Z,19.00
2018-11-21T10:24:17.995Z,15.50
2018-11-21T10:26:49.069Z,16.53
2018-11-21T10:29:17.598Z,14.63
2018-11-21T10:31:48.660Z,16.90
2018-11-21T10:34:17.463Z,16.00
2018-11-21T10:36:45.969Z,17.17
2018-11-21T10:39:14.400Z,16.23
2018-11-21T10:41:42.839Z,15.63
2018-11-21T10:44:13.459Z,16.00
2018-11-21T10:46:41.927Z,18.23
2018-11-21T10:49:10.497Z,15.70
2018-11-21T10:51:38.968Z,16.47
2018-11-21T10:54:09.359Z,16.70
2018-11-21T10:56:41.772Z,15.50
2018-11-21T10:59:10.330Z,14.57
2018-11-21T11:01:55.967Z,16.03
2018-11-21T11:04:43.497Z,16.93
2018-11-21T11:07:29.743Z,14.70
2018-11-21T11:10:35.232Z,17.00
2018-11-21T11:13:21.705Z,16.67
2018-11-21T11:16:10.626Z,14.70
2018-11-21T11:19:03.859Z,15.83
2018-11-21T11:21:51.383Z,19.90
2018-11-21T11:24:40.349Z,18.50
2018-11-21T11:27:26.860Z,16.87
2018-11-21T11:30:23.095Z,15.50
2018-11-21T11:33:11.011Z,14.37
2018-11-21T11:36:04.350Z,16.07
2018-11-21T11:38:57.642Z,17.23
2018-11-21T11:41:54.421Z,14.73
2018-11-21T11:44:47.696Z,14.90
2018-11-21T11:47:33.943Z,14.00
2018-11-21T11:50:31.298Z,13.23
2018-11-21T11:53:15.752Z,13.97
2018-11-21T11:56:02.317Z,16.63
2018-11-21T11:58:48.272Z,13.60
2018-11-21T12:01:52.699Z,15.53
2018-11-21T12:04:40.999Z,14.17
2018-11-21T12:07:28.506Z,15.73
2018-11-21T12:10:21.883Z,15.17
2018-11-21T12:13:11.170Z,15.32
2018-11-21T12:15:59.245Z,15.00
2018-11-21T12:18:52.016Z,15.30
2018-11-21T12:21:51.189Z,14.77
2018-11-21T12:24:53.538Z,15.13
2018-11-21T12:27:41.084Z,14.07
2018-11-21T12:30:30.835Z,13.70
2018-11-21T12:33:35.948Z,13.97
2018-11-21T12:36:28.278Z,13.50
2018-11-21T12:39:14.339Z,13.93
2018-11-21T12:42:00.455Z,13.97
2018-11-21T12:44:50.991Z,14.20
2018-11-21T12:47:40.961Z,14.27
2018-11-21T12:50:24.686Z,14.10
2018-11-21T12:53:14.179Z,13.73
2018-11-21T12:55:54.452Z,15.13
2018-11-21T12:58:41.374Z,14.13
2018-11-21T13:01:20.624Z,13.13
2018-11-21T13:04:09.603Z,13.50
2018-11-21T13:07:06.552Z,15.13
2018-11-21T13:09:56.933Z,13.97
2018-11-21T13:12:54.178Z,16.47
2018-11-21T13:15:35.767Z,15.87
2018-11-21T13:18:39.773Z,12.50
2018-11-21T13:21:34.870Z,14.97
2018-11-21T13:24:42.236Z,15.43
2018-11-21T13:27:31.855Z,16.03
2018-11-21T13:30:12.138Z,15.30
2018-11-21T13:33:17.485Z,15.17
2018-11-21T13:35:58.366Z,13.90
2018-11-21T13:38:52.313Z,14.97
2018-11-21T13:41:40.933Z,13.13
2018-11-21T13:44:37.038Z,17.00
2018-11-21T13:47:35.731Z,16.80
2018-11-21T13:50:25.093Z,16.90
2018-11-21T13:53:14.183Z,15.50
2018-11-21T13:55:44.972Z,14.57
2018-11-21T13:58:13.553Z,16.73
2018-11-21T14:00:42.126Z,15.77
2018-11-21T14:03:13.178Z,18.53
2018-11-21T14:05:44.483Z,16.83
2018-11-21T14:08:22.611Z,18.30
2018-11-21T14:10:54.453Z,17.07
2018-11-21T14:13:25.247Z,14.77
2018-11-21T14:15:53.854Z,15.33
2018-11-21T14:18:22.329Z,14.07
2018-11-21T14:20:55.850Z,17.67
2018-11-21T14:23:25.371Z,15.03
2018-11-21T14:25:56.341Z,14.60
2018-11-21T14:28:25.098Z,14.90
2018-11-21T14:30:53.710Z,16.60
2018-11-21T14:33:24.852Z,15.73
2018-11-21T14:35:56.176Z,18.17
2018-11-21T14:38:25.484Z,15.33
2018-11-21T14:41:04.799Z,17.73
2018-11-21T14:43:36.990Z,13.50
2018-11-21T14:46:10.494Z,13.27
2018-11-21T14:48:39.042Z,14.77
2018-11-21T14:51:07.518Z,15.43
2018-11-21T14:53:38.396Z,15.90
2018-11-21T14:56:07.682Z,14.90
2018-11-21T14:58:36.242Z,12.60
2018-11-21T15:01:04.574Z,14.20
2018-11-21T15:03:33.116Z,13.57
2018-11-21T15:06:01.711Z,14.83
2018-11-21T15:08:33.321Z,13.17
2018-11-21T15:11:04.366Z,13.97
2018-11-21T15:13:36.767Z,14.60
2018-11-21T15:16:05.229Z,14.40
2018-11-21T15:18:35.642Z,14.87
2018-11-21T15:21:16.268Z,13.90
2018-11-21T15:23:38.536Z,12.67
2018-11-21T15:26:08.772Z,13.20
2018-11-21T15:28:42.890Z,13.10
2018-11-21T15:31:11.344Z,12.80
2018-11-21T15:33:39.851Z,15.27
2018-11-21T15:36:08.408Z,16.33
2018-11-21T15:38:39.859Z,14.60
2018-11-21T15:41:08.303Z,14.63
2018-11-21T15:43:38.289Z,14.60
2018-11-21T15:46:08.030Z,14.63
2018-11-21T15:48:36.499Z,16.43
2018-11-21T15:51:05.192Z,15.37
2018-11-21T15:53:37.168Z,14.90
2018-11-21T15:56:06.795Z,17.30
2018-11-21T15:58:34.348Z,15.00
2018-11-21T16:01:02.787Z,15.20
2018-11-21T16:03:33.950Z,15.20
2018-11-21T16:06:08.473Z,13.97
2018-11-21T16:08:37.006Z,16.70
2018-11-21T16:11:10.579Z,17.13
2018-11-21T16:13:39.624Z,14.30
2018-11-21T16:16:08.412Z,17.00
2018-11-21T16:18:36.865Z,15.27
2018-11-21T16:21:05.556Z,14.97
2018-11-21T16:23:34.495Z,15.90
2018-11-21T16:26:09.111Z,14.87
2018-11-21T16:28:41.732Z,15.30
2018-11-21T16:31:15.009Z,14.77
2018-11-21T16:33:40.809Z,15.43
2018-11-21T16:36:09.300Z,14.63
2018-11-21T16:38:40.736Z,14.23
2018-11-21T16:41:08.223Z,14.27
2018-11-21T16:43:37.047Z,15.30
2018-11-21T16:46:09.122Z,14.27
2018-11-21T16:48:37.507Z,13.17
2018-11-21T16:51:07.001Z,14.63
2018-11-21T16:53:36.691Z,13.47
2018-11-21T16:56:08.001Z,13.67
2018-11-21T16:58:36.439Z,13.30
2018-11-21T17:01:05.490Z,14.20
2018-11-21T17:03:37.542Z,14.37
2018-11-21T17:06:08.428Z,15.20
2018-11-21T17:08:41.819Z,14.70
2018-11-21T17:11:15.594Z,14.97
2018-11-21T17:13:46.668Z,12.60
2018-11-21T17:16:17.502Z,16.90
2018-11-21T17:18:45.969Z,16.17
2018-11-21T17:21:17.414Z,13.60
2018-11-21T17:23:50.481Z,14.40
2018-11-21T17:26:20.739Z,13.70
2018-11-21T17:28:50.689Z,15.50
2018-11-21T17:31:18.616Z,13.70
2018-11-21T17:33:52.099Z,14.10
2018-11-21T17:36:17.769Z,13.40
2018-11-21T17:38:48.358Z,13.03
2018-11-21T17:41:16.814Z,15.07
2018-11-21T17:43:47.334Z,15.57
2018-11-21T17:46:16.179Z,14.23
2018-11-21T17:48:44.637Z,14.30
2018-11-21T17:51:13.100Z,13.73
2018-11-21T17:53:41.587Z,13.60
2018-11-21T17:56:13.647Z,13.30
2018-11-21T17:58:44.189Z,12.80
2018-11-21T18:01:15.524Z,14.63
2018-11-21T18:03:42.083Z,14.97
2018-11-21T18:06:11.489Z,12.07
2018-11-21T18:08:42.120Z,12.10
2018-11-21T18:11:10.579Z,11.43
2018-11-21T18:13:40.472Z,13.03
2018-11-21T18:16:07.503Z,13.07
2018-11-21T18:18:39.637Z,13.63
2018-11-21T18:21:09.023Z,12.57
2018-11-21T18:23:37.496Z,11.90
2018-11-21T18:26:06.173Z,12.17
2018-11-21T18:28:34.633Z,13.77
2018-11-21T18:31:03.084Z,13.30
2018-11-21T18:33:31.519Z,12.47
2018-11-21T18:36:00.000Z,13.10
2018-11-21T18:38:30.877Z,14.47
2018-11-21T18:40:59.313Z,12.00
2018-11-21T18:43:31.241Z,12.20
2018-11-21T18:45:59.666Z,12.13
2018-11-21T18:48:28.116Z,12.20
2018-11-21T18:50:56.613Z,12.27
2018-11-21T18:53:25.169Z,11.20
2018-11-21T18:55:57.623Z,13.20
2018-11-21T18:59:05.766Z,11.70
2018-11-21T19:01:34.285Z,11.47
2018-11-21T19:04:05.805Z,10.93
2018-11-21T19:06:35.780Z,12.20
2018-11-21T19:09:02.989Z,12.77
2018-11-21T19:11:31.973Z,11.50
2018-11-21T19:14:00.455Z,12.43
2018-11-21T19:16:31.658Z,10.97
2018-11-21T19:19:00.176Z,11.77
2018-11-21T19:21:29.910Z,11.73
2018-11-21T19:23:58.824Z,10.93
2018-11-21T19:26:30.996Z,11.10
2018-11-21T19:28:59.843Z,12.53
2018-11-21T19:31:29.738Z,10.67
2018-11-21T19:33:57.230Z,11.40
2018-11-21T19:36:26.686Z,11.60
2018-11-21T19:38:55.952Z,11.20
2018-11-21T19:41:24.373Z,10.50
2018-11-21T19:43:54.014Z,11.57
2018-11-21T19:46:25.651Z,11.20
2018-11-21T19:48:55.215Z,12.67
2018-11-21T19:51:23.688Z,10.07
2018-11-21T19:53:52.143Z,12.03
2018-11-21T19:56:24.198Z,10.63
2018-11-21T19:58:51.143Z,9.50
2018-11-21T20:01:20.444Z,11.00
2018-11-21T20:03:48.980Z,9.70
2018-11-21T20:06:17.548Z,14.07
2018-11-21T20:08:46.129Z,10.40
2018-11-21T20:11:14.571Z,11.40
2018-11-21T20:13:44.004Z,11.90
2018-11-21T20:16:14.062Z,11.17
2018-11-21T20:18:47.132Z,11.30
2018-11-21T20:21:18.035Z,12.47
2018-11-21T20:23:46.541Z,10.10
2018-11-21T20:26:17.730Z,10.87
2018-11-21T20:28:47.221Z,10.13
2018-11-21T20:31:15.654Z,11.70
2018-11-21T20:33:44.099Z,12.30
2018-11-21T20:36:12.641Z,12.00
2018-11-21T20:38:41.126Z,10.67
2018-11-21T20:41:10.854Z,10.30
2018-11-21T20:43:38.244Z,12.57
2018-11-21T20:46:06.763Z,10.40
2018-11-21T20:48:35.238Z,10.30
2018-11-21T20:51:07.994Z,10.97
2018-11-21T20:53:36.451Z,9.57
2018-11-21T20:56:05.224Z,11.20
2018-11-21T20:58:33.988Z,10.87
2018-11-21T21:01:05.415Z,13.30
2018-11-21T21:03:34.844Z,9.83
2018-11-21T21:06:03.403Z,10.73
2018-11-21T21:08:31.896Z,11.33
2018-11-21T21:11:06.242Z,10.10
2018-11-21T21:13:34.681Z,10.10
2018-11-21T21:16:06.765Z,10.60
2018-11-21T21:18:41.391Z,11.20
2018-11-21T21:21:15.681Z,11.40
2018-11-21T21:23:39.540Z,11.60
2018-11-21T21:26:08.404Z,12.20
2018-11-21T21:28:36.807Z,10.07
2018-11-21T21:31:05.390Z,10.73
2018-11-21T21:33:33.802Z,9.87
2018-11-21T21:36:02.260Z,10.33
2018-11-21T21:38:30.677Z,10.70
2018-11-21T21:40:59.112Z,10.87
2018-11-21T21:43:27.647Z,12.80
2018-11-21T21:45:56.103Z,10.80
2018-11-21T21:48:24.530Z,11.43
2018-11-21T21:50:52.969Z,9.90
2018-11-21T21:53:23.908Z,10.07
2018-11-21T21:55:52.331Z,12.33
2018-11-21T21:58:20.765Z,11.60
2018-11-21T22:00:49.220Z,12.37
2018-11-21T22:03:19.463Z,11.90
2018-11-21T22:06:07.600Z,10.30
2018-11-21T22:08:36.029Z,12.50
2018-11-21T22:11:05.799Z,12.37
2018-11-21T22:13:35.165Z,11.90
2018-11-21T22:16:03.594Z,12.90
2018-11-21T22:18:33.103Z,9.80
2018-11-21T22:21:04.105Z,11.47
2018-11-21T22:23:32.573Z,11.67
2018-11-21T22:26:03.213Z,12.20
2018-11-21T22:28:32.182Z,11.20
2018-11-21T22:31:01.498Z,9.90
2018-11-21T22:33:30.057Z,11.07
2018-11-21T22:36:02.848Z,11.53
2018-11-21T22:38:32.748Z,9.80
2018-11-21T22:41:01.196Z,11.73
2018-11-21T22:43:31.797Z,11.93
2018-11-21T22:46:00.279Z,12.50
2018-11-21T22:48:29.643Z,12.77
2018-11-21T22:50:58.113Z,13.30
2018-11-21T22:53:31.506Z,11.47
2018-11-21T22:56:01.561Z,12.40
2018-11-21T22:58:31.218Z,11.50
2018-11-21T23:01:00.686Z,11.40
2018-11-21T23:03:31.589Z,13.60
2018-11-21T23:06:00.045Z,10.37
2018-11-21T23:08:29.486Z,12.97
2018-11-21T23:10:58.384Z,10.97
2018-11-21T23:13:26.851Z,11.30
2018-11-21T23:15:55.290Z,12.07
2018-11-21T23:18:23.739Z,9.87
2018-11-21T23:20:52.154Z,10.67
2018-11-21T23:23:20.728Z,11.47
2018-11-21T23:25:54.010Z,11.70
2018-11-21T23:28:26.281Z,11.40
2018-11-21T23:30:54.744Z,13.60
2018-11-21T23:33:25.516Z,14.20
2018-11-21T23:35:54.103Z,11.90
2018-11-21T23:38:22.556Z,13.53
2018-11-21T23:40:52.228Z,12.07
2018-11-21T23:43:20.382Z,16.90
2018-11-21T23:45:48.814Z,13.90
2018-11-21T23:48:19.083Z,15.80
2018-11-21T23:50:47.511Z,14.93
2018-11-21T23:53:15.956Z,12.67
2018-11-21T23:55:44.467Z,11.90
2018-11-21T23:58:22.318Z,11.97
